Time;durP1;ratioP1;P1;durP2;ratioP2;P2;SDS_P1;SDS_P2;PMS_P1;PMS_P2;Temp;Humidity;BMP_temperature;BMP_pressure;BME280_temperature;BME280_humidity;BME280_pressure;Samples;Min_cycle;Max_cycle;Signal;HPM_P1;HPM_P2
2021/10/15 00:00:10;;;;;;;17.85;8.15;;;14.10;99.90;;;;;;5040235;28;20053;-88
2021/10/15 00:02:44;;;;;;;16.05;7.85;;;14.00;99.90;;;;;;5032805;28;20054;-87
2021/10/15 00:05:30;;;;;;;24.55;7.03;;;14.10;99.90;;;;;;5066116;28;20045;-88
2021/10/15 00:08:10;;;;;;;15.32;7.25;;;14.60;99.90;;;;;;5031310;28;20039;-87
2021/10/15 00:10:46;;;;;;;20.35;8.45;;;14.10;99.90;;;;;;5037475;28;20049;-91
2021/10/15 00:13:30;;;;;;;20.27;8.48;;;14.80;99.90;;;;;;5032984;28;20065;-89
2021/10/15 00:16:14;;;;;;;16.63;7.60;;;14.10;99.90;;;;;;5040224;28;20052;-90
2021/10/15 00:18:59;;;;;;;19.88;9.02;;;14.00;99.90;;;;;;5050512;28;20053;-90
2021/10/15 00:21:34;;;;;;;17.60;8.13;;;13.90;99.90;;;;;;5045032;28;20049;-87
2021/10/15 00:24:06;;;;;;;18.25;8.90;;;13.90;99.90;;;;;;5046838;28;20057;-90
2021/10/15 00:26:38;;;;;;;13.15;7.38;;;13.90;99.90;;;;;;5034032;28;20045;-89
2021/10/15 00:29:22;;;;;;;16.67;7.95;;;13.80;99.90;;;;;;5037515;28;20057;-87
2021/10/15 00:31:51;;;;;;;17.77;9.52;;;13.50;99.90;;;;;;5026422;28;20053;-87
2021/10/15 00:34:35;;;;;;;14.90;7.75;;;13.80;99.90;;;;;;5033069;28;20059;-88
2021/10/15 00:37:09;;;;;;;18.98;9.18;;;13.80;99.90;;;;;;5052890;28;20412;-90
2021/10/15 00:39:42;;;;;;;15.38;8.07;;;13.80;99.90;;;;;;5043941;28;20053;-87
2021/10/15 00:42:13;;;;;;;15.70;7.85;;;13.80;99.90;;;;;;5015746;28;20424;-87
2021/10/15 00:44:56;;;;;;;17.55;7.28;;;13.80;99.90;;;;;;5036989;28;20060;-87
2021/10/15 00:47:27;;;;;;;21.17;8.55;;;13.80;99.90;;;;;;5051928;28;20072;-87
2021/10/15 00:50:08;;;;;;;23.55;9.48;;;13.80;99.90;;;;;;5018713;28;20080;-88
2021/10/15 00:52:46;;;;;;;20.45;7.07;;;13.70;99.90;;;;;;5044897;28;20049;-90
2021/10/15 00:55:46;;;;;;;17.13;7.53;;;13.20;99.90;;;;;;5041064;28;20074;-88
2021/10/15 00:58:22;;;;;;;19.23;7.97;;;13.80;99.90;;;;;;5053731;28;20468;-89
2021/10/15 01:01:03;;;;;;;20.70;9.20;;;13.80;99.90;;;;;;5025086;28;20053;-90
2021/10/15 01:03:37;;;;;;;16.58;8.63;;;12.60;99.90;;;;;;5047643;28;20053;-91
2021/10/15 01:06:10;;;;;;;15.52;7.53;;;13.80;99.90;;;;;;5033643;28;20050;-90
2021/10/15 01:08:47;;;;;;;17.55;8.30;;;14.40;99.90;;;;;;5060512;28;20060;-89
2021/10/15 01:11:30;;;;;;;18.15;6.90;;;13.80;99.90;;;;;;5032420;28;20053;-87
2021/10/15 01:14:01;;;;;;;15.82;6.72;;;13.80;99.90;;;;;;5059483;28;20047;-90
2021/10/15 01:16:36;;;;;;;18.52;7.72;;;13.80;99.90;;;;;;5042037;28;20436;-89
2021/10/15 01:19:09;;;;;;;13.57;6.88;;;13.80;99.90;;;;;;5069274;28;20041;-88
2021/10/15 01:21:42;;;;;;;16.55;7.50;;;13.80;99.90;;;;;;5068865;28;20049;-89
2021/10/15 01:24:23;;;;;;;15.50;8.07;;;13.80;99.90;;;;;;5062040;28;20056;-91
2021/10/15 01:27:05;;;;;;;16.40;7.88;;;13.80;99.90;;;;;;5015031;28;20645;-88
2021/10/15 01:29:36;;;;;;;19.33;7.63;;;13.80;99.90;;;;;;5028733;28;20056;-88
2021/10/15 01:32:10;;;;;;;17.42;6.97;;;13.80;99.90;;;;;;5030605;28;20056;-88
2021/10/15 01:34:41;;;;;;;15.77;7.38;;;13.80;99.90;;;;;;5026412;28;20049;-89
2021/10/15 01:37:11;;;;;;;17.67;8.25;;;13.80;99.90;;;;;;5039321;28;20057;-90
2021/10/15 01:39:40;;;;;;;17.00;9.80;;;13.90;99.90;;;;;;5045034;28;20056;-88
2021/10/15 01:42:53;;;;;;;14.48;7.43;;;13.90;99.90;;;;;;5045218;28;20045;-90
2021/10/15 01:44:59;;;;;;;17.90;8.25;;;13.90;99.90;;;;;;5016181;28;20064;-90
2021/10/15 01:47:30;;;;;;;21.35;8.02;;;13.90;99.90;;;;;;5061352;28;20052;-89
2021/10/15 01:50:00;;;;;;;20.33;8.50;;;13.90;99.90;;;;;;5016173;28;20067;-89
2021/10/15 01:52:28;;;;;;;19.75;7.93;;;13.90;99.90;;;;;;5039601;28;20049;-89
2021/10/15 01:54:57;;;;;;;19.40;7.97;;;13.90;99.90;;;;;;5044067;28;20046;-91
2021/10/15 01:57:25;;;;;;;15.85;6.88;;;13.90;99.90;;;;;;5041689;28;20045;-90
2021/10/15 01:59:53;;;;;;;19.48;8.43;;;13.90;99.90;;;;;;5025619;28;20053;-89
2021/10/15 02:02:22;;;;;;;22.92;8.85;;;13.90;99.90;;;;;;5041317;28;20056;-89
2021/10/15 02:04:52;;;;;;;18.57;7.87;;;13.80;99.90;;;;;;5063073;28;20056;-90
2021/10/15 02:07:21;;;;;;;14.65;7.47;;;13.80;99.90;;;;;;5042440;28;20041;-90
2021/10/15 02:09:51;;;;;;;16.48;7.45;;;13.80;99.90;;;;;;5049793;28;20057;-89
2021/10/15 02:12:22;;;;;;;20.10;7.60;;;13.40;99.90;;;;;;5030369;28;20037;-91
2021/10/15 02:14:52;;;;;;;16.88;7.65;;;13.90;99.90;;;;;;5011722;28;20057;-91
2021/10/15 02:17:21;;;;;;;12.23;6.25;;;13.80;99.90;;;;;;5028319;28;20052;-88
2021/10/15 02:19:49;;;;;;;16.95;6.65;;;13.90;99.90;;;;;;5051114;28;20045;-88
2021/10/15 02:22:20;;;;;;;18.25;7.25;;;13.90;99.90;;;;;;5050241;28;20049;-90
2021/10/15 02:24:48;;;;;;;15.73;7.80;;;13.90;99.90;;;;;;5056550;28;20061;-89
2021/10/15 02:27:16;;;;;;;17.45;7.63;;;13.90;99.90;;;;;;5048495;28;20053;-90
2021/10/15 02:29:51;;;;;;;16.15;7.18;;;13.80;99.90;;;;;;5032815;28;20057;-88
2021/10/15 02:32:21;;;;;;;16.20;8.48;;;13.80;99.90;;;;;;5048819;28;20371;-87
2021/10/15 02:34:51;;;;;;;17.48;6.82;;;13.70;99.90;;;;;;5028011;28;20057;-88
2021/10/15 02:37:20;;;;;;;23.80;7.78;;;14.00;99.90;;;;;;5052242;28;20565;-90
2021/10/15 02:39:47;;;;;;;14.27;7.35;;;13.80;99.90;;;;;;5027413;28;20045;-88
2021/10/15 02:42:17;;;;;;;19.83;8.48;;;13.80;99.90;;;;;;5056763;28;20038;-87
2021/10/15 02:44:45;;;;;;;13.13;6.35;;;13.70;99.90;;;;;;5057225;28;20126;-90
2021/10/15 02:47:13;;;;;;;15.68;8.18;;;13.70;99.90;;;;;;5032201;28;20051;-90
2021/10/15 02:49:45;;;;;;;19.25;7.85;;;13.70;99.90;;;;;;5043836;28;20056;-89
2021/10/15 02:52:14;;;;;;;20.80;8.75;;;13.60;99.90;;;;;;5027817;28;20053;-88
2021/10/15 02:54:44;;;;;;;17.88;7.50;;;13.60;99.90;;;;;;5025102;28;20064;-89
2021/10/15 02:57:12;;;;;;;17.75;7.53;;;13.60;99.90;;;;;;5058802;28;20033;-88
2021/10/15 02:59:40;;;;;;;12.32;6.75;;;13.60;99.90;;;;;;5059967;28;20491;-87
2021/10/15 03:02:08;;;;;;;14.15;6.45;;;13.60;99.90;;;;;;5062416;28;20052;-87
2021/10/15 03:04:36;;;;;;;23.23;7.85;;;13.60;99.90;;;;;;5059255;28;20053;-87
2021/10/15 03:07:06;;;;;;;18.40;6.63;;;13.60;99.90;;;;;;5057800;28;20052;-90
2021/10/15 03:09:35;;;;;;;18.08;8.52;;;13.70;99.90;;;;;;5041478;28;20084;-87
2021/10/15 03:12:05;;;;;;;15.65;7.75;;;13.70;99.90;;;;;;5048700;28;20071;-87
2021/10/15 03:14:36;;;;;;;15.60;7.80;;;13.70;99.90;;;;;;5042288;28;20056;-92
2021/10/15 03:17:07;;;;;;;16.05;8.10;;;13.70;99.90;;;;;;5040476;28;20052;-90
2021/10/15 03:19:37;;;;;;;17.55;7.50;;;13.70;99.90;;;;;;5062727;28;20054;-91
2021/10/15 03:22:06;;;;;;;15.77;7.43;;;13.70;99.90;;;;;;5060813;28;20045;-89
2021/10/15 03:24:34;;;;;;;18.85;8.20;;;13.70;99.90;;;;;;5057674;28;20041;-89
2021/10/15 03:27:02;;;;;;;17.60;7.15;;;13.70;99.90;;;;;;5037562;28;20516;-90
2021/10/15 03:29:32;;;;;;;14.82;7.78;;;13.70;99.90;;;;;;5059523;28;20870;-89
2021/10/15 03:32:02;;;;;;;17.70;7.30;;;13.60;99.90;;;;;;5061889;28;20045;-88
2021/10/15 03:34:32;;;;;;;23.55;7.25;;;13.70;99.90;;;;;;5042750;28;20061;-88
2021/10/15 03:37:00;;;;;;;18.48;7.70;;;13.70;99.90;;;;;;5054788;28;20521;-89
2021/10/15 03:39:29;;;;;;;17.90;8.38;;;13.70;99.90;;;;;;5025849;28;20049;-89
2021/10/15 03:41:57;;;;;;;22.52;7.70;;;13.70;99.90;;;;;;5039136;28;20552;-90
2021/10/15 03:44:34;;;;;;;14.18;6.82;;;13.70;99.90;;;;;;5051631;28;20053;-88
2021/10/15 03:47:03;;;;;;;16.35;6.65;;;13.70;99.90;;;;;;5037633;28;20060;-88
2021/10/15 03:49:31;;;;;;;19.70;8.25;;;13.70;99.90;;;;;;5060881;28;20459;-90
2021/10/15 03:52:01;;;;;;;13.87;7.80;;;13.60;99.90;;;;;;5059965;28;20033;-89
2021/10/15 03:54:30;;;;;;;24.83;8.48;;;13.60;99.90;;;;;;5047375;28;20056;-90
2021/10/15 03:57:01;;;;;;;18.55;6.72;;;13.60;99.90;;;;;;5041539;28;20540;-90
2021/10/15 03:59:32;;;;;;;19.60;7.75;;;13.60;99.90;;;;;;5022886;28;20060;-89
2021/10/15 04:02:01;;;;;;;17.42;6.90;;;13.60;99.90;;;;;;5041862;28;20063;-89
2021/10/15 04:04:29;;;;;;;12.60;6.30;;;13.60;99.90;;;;;;5041869;28;20055;-88
2021/10/15 04:06:57;;;;;;;16.80;7.32;;;13.60;99.90;;;;;;5024964;28;20508;-90
2021/10/15 04:09:27;;;;;;;14.67;7.30;;;13.60;99.90;;;;;;5036464;28;20061;-89
2021/10/15 04:11:56;;;;;;;15.05;7.40;;;13.60;99.90;;;;;;5061672;28;20056;-86
2021/10/15 04:14:24;;;;;;;14.98;9.10;;;13.60;99.90;;;;;;5045800;28;20045;-89
2021/10/15 04:16:52;;;;;;;18.38;7.93;;;13.60;99.90;;;;;;5062315;28;20055;-87
2021/10/15 04:19:21;;;;;;;16.08;7.55;;;13.60;99.90;;;;;;5063222;28;20060;-89
2021/10/15 04:21:51;;;;;;;15.15;7.22;;;13.70;99.90;;;;;;5045245;28;20052;-89
2021/10/15 04:24:20;;;;;;;15.57;5.85;;;13.70;99.90;;;;;;5036717;28;20056;-90
2021/10/15 04:26:48;;;;;;;14.90;6.22;;;13.30;99.90;;;;;;5013136;28;20052;-88
2021/10/15 04:29:16;;;;;;;16.13;7.97;;;13.70;99.90;;;;;;5045530;28;20045;-89
2021/10/15 04:31:45;;;;;;;20.20;7.78;;;13.70;99.90;;;;;;5063134;28;20060;-89
2021/10/15 04:34:13;;;;;;;14.43;6.95;;;13.70;99.90;;;;;;5063443;28;20357;-90
2021/10/15 04:36:41;;;;;;;15.15;6.53;;;13.70;99.90;;;;;;5044774;28;20345;-89
2021/10/15 04:39:11;;;;;;;13.55;7.05;;;13.70;99.90;;;;;;5032642;28;20056;-88
2021/10/15 04:41:42;;;;;;;14.70;6.82;;;13.70;99.90;;;;;;5034008;28;20053;-90
2021/10/15 04:44:36;;;;;;;12.98;6.47;;;13.70;99.90;;;;;;5056643;28;20502;-89
2021/10/15 04:47:07;;;;;;;14.75;6.93;;;13.70;99.90;;;;;;5058133;28;20057;-88
2021/10/15 04:49:36;;;;;;;13.52;8.10;;;13.70;99.90;;;;;;5017960;28;20052;-88
2021/10/15 04:52:05;;;;;;;13.52;6.38;;;13.70;99.90;;;;;;5046382;28;20476;-89
2021/10/15 04:54:36;;;;;;;15.65;6.90;;;13.70;99.90;;;;;;5039742;28;20068;-89
2021/10/15 04:57:07;;;;;;;15.10;7.65;;;13.70;99.90;;;;;;5043106;28;20056;-88
2021/10/15 04:59:37;;;;;;;15.90;6.75;;;13.70;99.90;;;;;;5045632;28;20052;-87
2021/10/15 05:02:04;;;;;;;19.55;6.53;;;13.70;99.90;;;;;;5039098;28;20052;-86
2021/10/15 05:04:33;;;;;;;14.60;7.00;;;13.70;99.90;;;;;;5059285;28;20052;-89
2021/10/15 05:07:00;;;;;;;13.50;6.25;;;13.70;99.90;;;;;;5058899;28;20057;-91
2021/10/15 05:12:07;;;;;;;15.50;7.03;;;13.70;99.90;;;;;;5057006;28;20057;-86
2021/10/15 05:14:35;;;;;;;12.90;6.68;;;14.20;99.90;;;;;;5059434;28;20165;-88
2021/10/15 05:17:04;;;;;;;13.98;6.57;;;13.70;99.90;;;;;;5060215;28;20057;-88
2021/10/15 05:19:36;;;;;;;14.55;6.53;;;13.70;99.90;;;;;;5056437;28;20036;-89
2021/10/15 05:22:05;;;;;;;12.80;7.30;;;13.70;99.90;;;;;;5082024;28;20480;-88
2021/10/15 05:24:33;;;;;;;18.95;7.68;;;13.70;99.90;;;;;;5067375;28;20045;-88
2021/10/15 05:27:01;;;;;;;21.05;7.55;;;13.70;99.90;;;;;;5048217;28;20053;-90
2021/10/15 05:29:31;;;;;;;21.67;6.43;;;13.70;99.90;;;;;;5032961;28;20044;-89
2021/10/15 05:31:59;;;;;;;21.52;6.82;;;13.70;99.90;;;;;;5058452;28;20049;-83
2021/10/15 05:34:29;;;;;;;16.92;7.00;;;13.70;99.90;;;;;;5062796;28;20053;-86
2021/10/15 05:36:58;;;;;;;20.92;8.40;;;13.70;99.90;;;;;;5063157;28;20071;-86
2021/10/15 05:39:28;;;;;;;14.73;8.00;;;13.70;99.90;;;;;;5062234;28;20061;-87
2021/10/15 05:42:08;;;;;;;15.93;6.20;;;13.70;99.90;;;;;;5027872;28;20057;-87
2021/10/15 05:44:43;;;;;;;13.57;7.30;;;13.70;99.90;;;;;;5064690;28;20037;-91
2021/10/15 05:47:11;;;;;;;17.15;6.47;;;13.70;99.90;;;;;;5072080;28;20033;-88
2021/10/15 05:49:44;;;;;;;25.40;7.22;;;13.70;99.90;;;;;;5066894;28;20056;-89
2021/10/15 05:52:19;;;;;;;14.60;6.13;;;13.70;99.90;;;;;;5038974;28;20067;-87
2021/10/15 05:55:08;;;;;;;15.25;7.53;;;13.70;99.90;;;;;;5035719;28;20233;-88
2021/10/15 06:00:27;;;;;;;14.68;7.15;;;13.70;99.90;;;;;;5065453;28;20488;-87
2021/10/15 06:02:57;;;;;;;16.33;7.70;;;13.70;99.90;;;;;;5061939;28;20132;-86
2021/10/15 06:15:58;;;;;;;14.93;6.38;;;13.70;99.90;;;;;;5061750;28;20060;-87
2021/10/15 06:18:38;;;;;;;19.73;6.85;;;13.70;99.90;;;;;;5064967;28;20052;-92
2021/10/15 06:21:07;;;;;;;19.02;7.60;;;13.70;99.90;;;;;;5040229;28;20067;-91
2021/10/15 06:23:37;;;;;;;13.50;7.13;;;13.70;99.90;;;;;;5061838;28;20057;-86
2021/10/15 06:26:06;;;;;;;17.63;6.28;;;13.70;99.90;;;;;;5063546;28;20302;-88
2021/10/15 06:28:37;;;;;;;15.80;8.18;;;13.80;99.90;;;;;;5059972;28;20047;-86
2021/10/15 06:31:06;;;;;;;19.40;7.22;;;13.80;99.90;;;;;;5056023;28;20049;-87
2021/10/15 06:33:37;;;;;;;19.45;8.05;;;13.80;99.90;;;;;;5059163;28;20069;-87
2021/10/15 06:36:06;;;;;;;16.48;7.15;;;13.70;99.90;;;;;;5057204;28;20044;-85
2021/10/15 06:38:35;;;;;;;17.13;7.35;;;13.80;99.90;;;;;;5056762;28;20053;-84
2021/10/15 06:41:03;;;;;;;22.73;7.55;;;13.80;99.90;;;;;;5060587;28;20056;-84
2021/10/15 06:43:32;;;;;;;17.92;6.38;;;13.80;99.90;;;;;;5059617;28;20523;-85
2021/10/15 06:46:00;;;;;;;16.88;6.65;;;13.80;99.90;;;;;;5064923;28;20053;-85
2021/10/15 06:48:29;;;;;;;19.83;7.05;;;13.80;99.90;;;;;;5035196;28;20052;-84
2021/10/15 06:50:57;;;;;;;17.48;6.60;;;13.80;99.90;;;;;;5060063;28;20049;-84
2021/10/15 06:53:27;;;;;;;16.50;7.40;;;13.80;99.90;;;;;;5029764;28;20037;-86
2021/10/15 06:55:55;;;;;;;18.02;7.38;;;13.80;99.90;;;;;;5049096;28;20059;-83
2021/10/15 06:58:24;;;;;;;14.90;6.25;;;13.80;99.90;;;;;;5050933;28;20496;-83
2021/10/15 07:00:52;;;;;;;16.55;7.63;;;13.80;99.90;;;;;;5042626;28;20045;-83
2021/10/15 07:03:21;;;;;;;14.77;7.28;;;13.90;99.90;;;;;;5035146;28;20052;-83
2021/10/15 07:05:49;;;;;;;17.08;7.05;;;13.90;99.90;;;;;;5046194;28;20045;-83
2021/10/15 07:08:17;;;;;;;27.02;7.60;;;13.90;99.90;;;;;;5023716;28;20042;-83
2021/10/15 07:10:47;;;;;;;22.98;7.22;;;13.90;99.90;;;;;;5051923;28;20403;-82
2021/10/15 07:13:15;;;;;;;16.98;7.32;;;13.90;99.90;;;;;;5052379;28;20072;-82
2021/10/15 07:15:49;;;;;;;20.85;6.18;;;13.90;99.90;;;;;;5026507;28;20562;-84
2021/10/15 07:18:18;;;;;;;16.40;7.20;;;13.90;99.90;;;;;;5024934;28;20049;-84
2021/10/15 07:20:53;;;;;;;16.88;7.63;;;13.90;99.90;;;;;;5026848;28;20045;-84
2021/10/15 07:23:22;;;;;;;22.60;7.25;;;13.90;99.90;;;;;;5056162;28;20061;-84
2021/10/15 07:25:50;;;;;;;18.85;8.30;;;13.90;99.90;;;;;;5062150;28;20052;-85
2021/10/15 07:28:23;;;;;;;22.92;7.30;;;14.00;99.90;;;;;;5063310;28;20049;-84
2021/10/15 07:30:54;;;;;;;18.85;7.75;;;14.00;99.90;;;;;;5062269;28;20049;-87
2021/10/15 07:33:22;;;;;;;15.73;7.07;;;14.00;99.90;;;;;;5019657;28;20057;-89
2021/10/15 07:35:50;;;;;;;15.98;8.00;;;14.00;99.90;;;;;;5030092;28;20068;-85
2021/10/15 07:38:19;;;;;;;17.08;7.85;;;14.00;99.90;;;;;;5051548;28;20051;-84
2021/10/15 07:40:48;;;;;;;20.02;7.40;;;14.00;99.90;;;;;;5058038;28;20040;-85
2021/10/15 07:43:17;;;;;;;16.35;7.20;;;14.00;99.90;;;;;;5058344;28;20056;-84
2021/10/15 07:45:48;;;;;;;;;;;14.10;99.90;;;;;;5045543;28;20042;-87
2021/10/15 07:48:18;;;;;;;16.17;7.25;;;14.00;99.90;;;;;;5053589;28;19921;-85
2021/10/15 07:50:47;;;;;;;14.15;6.35;;;14.10;99.90;;;;;;5058769;28;20048;-85
2021/10/15 07:53:20;;;;;;;13.75;6.28;;;14.10;99.90;;;;;;5054300;28;20107;-84
2021/10/15 07:55:49;;;;;;;15.90;5.15;;;14.10;99.90;;;;;;5055122;28;20057;-83
2021/10/15 07:58:20;;;;;;;15.80;6.90;;;14.10;99.90;;;;;;5049366;28;20413;-83
2021/10/15 08:00:49;;;;;;;15.73;6.25;;;14.10;99.90;;;;;;5055206;28;20057;-84
2021/10/15 08:03:17;;;;;;;14.25;6.13;;;14.10;99.90;;;;;;5050093;28;20056;-84
2021/10/15 08:05:46;;;;;;;14.15;7.07;;;14.10;99.90;;;;;;5051105;28;20052;-84
2021/10/15 08:08:16;;;;;;;15.30;6.32;;;14.10;99.90;;;;;;5030403;28;20042;-85
2021/10/15 08:10:44;;;;;;;21.10;6.77;;;14.10;99.90;;;;;;5047758;28;20053;-86
2021/10/15 08:13:13;;;;;;;16.30;6.82;;;14.10;99.90;;;;;;5025926;28;20050;-84
2021/10/15 08:15:42;;;;;;;19.70;5.88;;;14.10;99.90;;;;;;5013169;28;20045;-85
2021/10/15 08:18:12;;;;;;;18.70;8.38;;;14.10;99.90;;;;;;5043152;28;20386;-84
2021/10/15 08:20:42;;;;;;;18.50;6.57;;;14.20;99.90;;;;;;5035500;28;20068;-84
2021/10/15 08:23:11;;;;;;;30.40;13.48;;;14.10;99.90;;;;;;5022185;28;20049;-86
2021/10/15 08:25:47;;;;;;;36.25;14.38;;;14.10;99.90;;;;;;5043982;28;20049;-86
2021/10/15 08:28:16;;;;;;;22.23;10.95;;;14.10;99.90;;;;;;5029656;28;20049;-86
2021/10/15 08:31:05;;;;;;;21.63;10.68;;;14.00;99.90;;;;;;5037624;28;20270;-86
2021/10/15 08:33:37;;;;;;;14.85;6.13;;;13.90;99.90;;;;;;5050198;28;20060;-86
2021/10/15 08:36:05;;;;;;;;;;;13.90;99.90;;;;;;5039031;28;20068;-87
2021/10/15 08:38:32;;;;;;;25.10;9.23;;;13.90;99.90;;;;;;5014541;28;19921;-87
2021/10/15 08:41:00;;;;;;;21.10;6.97;;;13.90;99.90;;;;;;5031820;28;21136;-84
2021/10/15 08:43:40;;;;;;;4.95;3.42;;;13.90;99.90;;;;;;5026695;28;20050;-84
2021/10/15 08:46:10;;;;;;;3.70;2.30;;;13.80;99.90;;;;;;5036080;28;20049;-83
2021/10/15 08:48:40;;;;;;;7.38;2.97;;;13.80;99.90;;;;;;5034966;28;20053;-85
2021/10/15 08:51:09;;;;;;;8.25;2.25;;;13.80;99.90;;;;;;5056033;28;20045;-85
2021/10/15 08:53:58;;;;;;;7.70;3.00;;;13.70;99.90;;;;;;5047406;28;20040;-84
2021/10/15 08:56:31;;;;;;;5.47;2.45;;;13.70;99.90;;;;;;5044658;28;20495;-84
2021/10/15 08:59:03;;;;;;;4.43;2.30;;;13.70;99.90;;;;;;5045666;28;20045;-83
2021/10/15 09:01:44;;;;;;;8.73;4.60;;;13.70;99.90;;;;;;5034255;28;20046;-83
2021/10/15 09:04:18;;;;;;;17.02;4.97;;;13.60;99.90;;;;;;5045389;28;20056;-86
2021/10/15 09:06:49;;;;;;;7.38;3.25;;;13.50;99.90;;;;;;5039958;28;20523;-86
2021/10/15 09:09:29;;;;;;;6.90;1.80;;;13.50;99.90;;;;;;5045092;28;20055;-87
2021/10/15 09:12:09;;;;;;;7.07;1.40;;;13.40;99.90;;;;;;5016379;28;20043;-85
2021/10/15 09:14:39;;;;;;;2.45;2.05;;;13.40;99.90;;;;;;5045141;28;20542;-85
2021/10/15 09:17:18;;;;;;;7.05;2.30;;;13.30;99.90;;;;;;5037347;28;20396;-85
2021/10/15 09:19:50;;;;;;;4.85;1.10;;;13.20;99.90;;;;;;5053942;28;20049;-82
2021/10/15 09:22:25;;;;;;;4.15;1.30;;;13.10;99.90;;;;;;5050833;28;20049;-83
2021/10/15 09:25:03;;;;;;;5.63;1.35;;;13.10;99.90;;;;;;5053780;28;20060;-86
2021/10/15 09:27:33;;;;;;;6.32;1.45;;;13.00;99.90;;;;;;5050854;28;20041;-84
2021/10/15 09:30:07;;;;;;;3.67;1.50;;;12.90;99.90;;;;;;5051761;28;20048;-83
2021/10/15 09:32:44;;;;;;;4.20;1.40;;;12.90;99.90;;;;;;5055451;28;20075;-83
2021/10/15 09:35:15;;;;;;;7.55;2.25;;;12.80;99.90;;;;;;5056369;28;20389;-86
2021/10/15 09:37:47;;;;;;;4.95;1.23;;;12.80;99.90;;;;;;5032471;28;20086;-87
2021/10/15 09:40:22;;;;;;;8.73;1.42;;;12.80;99.90;;;;;;5037428;28;20049;-88
2021/10/15 09:43:02;;;;;;;2.90;1.42;;;12.90;99.90;;;;;;5033709;28;20386;-85
2021/10/15 09:45:38;;;;;;;10.43;1.75;;;13.00;99.90;;;;;;5029841;28;20107;-85
2021/10/15 09:48:28;;;;;;;8.30;2.10;;;13.10;99.90;;;;;;5036954;28;20056;-85
2021/10/15 09:51:12;;;;;;;3.05;2.10;;;13.30;99.90;;;;;;5050663;28;20041;-84
2021/10/15 09:54:12;;;;;;;8.75;2.00;;;13.30;99.90;;;;;;5038463;28;20041;-87
2021/10/15 09:56:49;;;;;;;8.23;1.95;;;13.40;99.90;;;;;;5034628;28;20041;-86
2021/10/15 09:59:22;;;;;;;8.10;2.97;;;13.50;99.90;;;;;;5043322;28;20223;-88
2021/10/15 10:01:51;;;;;;;9.18;2.40;;;13.50;99.90;;;;;;5023941;28;20045;-85
2021/10/15 10:04:22;;;;;;;13.45;1.63;;;13.60;99.90;;;;;;5044559;28;20041;-86
2021/10/15 10:06:50;;;;;;;7.27;1.90;;;13.60;99.90;;;;;;5046218;28;20041;-85
2021/10/15 10:09:19;;;;;;;3.72;1.77;;;13.60;99.90;;;;;;5041568;28;20052;-85
2021/10/15 10:11:53;;;;;;;4.78;1.40;;;13.60;99.90;;;;;;5033353;28;20060;-86
2021/10/15 10:14:26;;;;;;;4.13;1.35;;;13.70;99.90;;;;;;5045855;28;20207;-85
2021/10/15 10:16:56;;;;;;;7.38;2.10;;;12.80;99.90;;;;;;5053646;28;20481;-86
2021/10/15 10:19:28;;;;;;;8.40;2.75;;;14.50;99.90;;;;;;5056753;28;20041;-83
2021/10/15 10:21:58;;;;;;;7.10;1.30;;;13.80;99.90;;;;;;5035296;28;20048;-87
2021/10/15 10:24:31;;;;;;;15.32;2.50;;;13.90;99.90;;;;;;5058887;28;20049;-88
2021/10/15 10:27:00;;;;;;;7.43;1.83;;;13.70;99.90;;;;;;5047777;28;20053;-84
2021/10/15 10:29:43;;;;;;;9.20;3.03;;;13.90;99.90;;;;;;5050548;28;20053;-84
2021/10/15 10:32:17;;;;;;;11.00;2.00;;;13.90;99.90;;;;;;5050145;28;20133;-84
2021/10/15 10:34:45;;;;;;;7.95;1.45;;;14.00;99.90;;;;;;5021277;28;20056;-86
2021/10/15 10:37:15;;;;;;;6.47;2.17;;;14.10;99.90;;;;;;5056367;28;20044;-85
2021/10/15 10:40:10;;;;;;;4.82;1.90;;;14.10;99.90;;;;;;5056645;28;20048;-84
2021/10/15 10:43:00;;;;;;;8.95;2.97;;;14.20;99.90;;;;;;5048812;28;20535;-83
2021/10/15 10:45:28;;;;;;;12.48;2.08;;;14.30;99.90;;;;;;5042195;28;20057;-83
2021/10/15 10:48:05;;;;;;;11.50;2.15;;;14.40;99.90;;;;;;5042358;28;20048;-81
2021/10/15 10:50:33;;;;;;;13.70;2.88;;;14.40;99.90;;;;;;5042879;28;20164;-82
2021/10/15 10:53:08;;;;;;;10.93;3.28;;;14.60;99.90;;;;;;5035936;28;20056;-81
2021/10/15 10:55:54;;;;;;;5.15;1.85;;;14.60;99.90;;;;;;5042282;28;20563;-84
2021/10/15 10:58:30;;;;;;;8.73;1.90;;;14.80;99.90;;;;;;5004274;28;20745;-84
2021/10/15 11:01:28;;;;;;;17.42;3.72;;;14.80;99.90;;;;;;5040619;28;20436;-85
2021/10/15 11:03:58;;;;;;;12.68;2.70;;;15.00;99.90;;;;;;5051721;28;20055;-85
2021/10/15 11:07:00;;;;;;;10.15;2.20;;;15.00;99.90;;;;;;5044853;28;20457;-84
2021/10/15 11:09:43;;;;;;;10.82;2.55;;;15.10;99.90;;;;;;5048471;28;20047;-81
2021/10/15 11:12:13;;;;;;;11.75;2.08;;;15.00;99.90;;;;;;5044973;28;20037;-84
2021/10/15 11:15:10;;;;;;;5.72;1.83;;;15.00;99.90;;;;;;5045345;28;20037;-84
2021/10/15 11:17:47;;;;;;;16.92;4.15;;;15.00;99.90;;;;;;5062989;28;20042;-89
2021/10/15 11:20:24;;;;;;;7.30;1.55;;;15.10;99.90;;;;;;5049762;28;20045;-89
2021/10/15 11:23:11;;;;;;;7.88;2.78;;;15.10;99.90;;;;;;5025284;28;20048;-85
2021/10/15 11:26:00;;;;;;;6.40;2.17;;;15.10;99.90;;;;;;5032549;28;20060;-90
2021/10/15 11:28:50;;;;;;;5.20;2.15;;;14.40;99.90;;;;;;5046412;28;20489;-92
2021/10/15 11:31:36;;;;;;;7.35;1.58;;;15.10;99.90;;;;;;5060848;28;20029;-92
2021/10/15 11:34:16;;;;;;;10.10;2.20;;;15.00;99.90;;;;;;5050066;28;20064;-90
2021/10/15 11:37:13;;;;;;;9.57;3.45;;;15.00;99.90;;;;;;5034239;28;20059;-89
2021/10/15 11:39:46;;;;;;;6.22;2.45;;;14.90;99.90;;;;;;5054681;28;20059;-92
2021/10/15 11:42:34;;;;;;;11.57;2.00;;;14.90;99.90;;;;;;5051204;28;20453;-91
2021/10/15 11:45:34;;;;;;;15.32;4.00;;;15.00;99.90;;;;;;5060854;28;20083;-87
2021/10/15 11:49:04;;;;;;;;;;;15.10;99.90;;;;;;5057543;28;20040;-94
2021/10/15 11:52:15;;;;;;;17.17;2.80;;;15.20;99.90;;;;;;5041014;28;19925;-81
2021/10/15 11:54:46;;;;;;;14.20;2.30;;;15.40;99.90;;;;;;5028716;28;20095;-84
2021/10/15 11:58:27;;;;;;;14.13;2.55;;;15.50;99.90;;;;;;5011355;28;20042;-83
2021/10/15 12:01:30;;;;;;;33.80;4.68;;;15.70;99.90;;;;;;5037849;28;20056;-83
2021/10/15 12:04:54;;;;;;;14.20;3.47;;;15.90;99.90;;;;;;4967353;28;20055;-83
2021/10/15 12:08:23;;;;;;;;;;;;;;;;;;;;;
2021/10/15 12:11:40;;;;;;;7.05;3.35;;;16.00;99.90;;;;;;4923676;29;20068;-82
2021/10/15 12:14:53;;;;;;;14.73;3.80;;;16.00;99.90;;;;;;4907896;29;20056;-83
2021/10/15 12:17:26;;;;;;;12.45;2.50;;;15.90;99.90;;;;;;4908568;29;20056;-82
2021/10/15 12:20:01;;;;;;;8.73;2.30;;;15.80;99.90;;;;;;4972913;28;20059;-82
2021/10/15 12:23:25;;;;;;;11.70;2.55;;;15.40;99.90;;;;;;4974779;28;20098;-82
2021/10/15 12:26:39;;;;;;;11.57;3.20;;;16.60;99.70;;;;;;4931939;28;20059;-81
2021/10/15 12:29:25;;;;;;;7.15;2.05;;;16.10;99.90;;;;;;4989098;28;20066;-82
2021/10/15 12:32:14;;;;;;;14.63;2.30;;;15.40;99.50;;;;;;4981793;28;20039;-80
2021/10/15 12:35:16;;;;;;;9.63;2.13;;;16.20;99.90;;;;;;4995077;28;20051;-80
2021/10/15 12:38:01;;;;;;;16.27;2.38;;;16.20;99.50;;;;;;4983468;28;20058;-81
2021/10/15 12:40:44;;;;;;;;;;;;;;;;;;;;;
2021/10/15 12:43:21;;;;;;;18.02;6.03;;;16.30;99.90;;;;;;5041133;28;20064;-81
2021/10/15 12:45:52;;;;;;;28.48;3.72;;;16.30;99.90;;;;;;5032867;28;20057;-82
2021/10/15 12:49:25;;;;;;;9.90;2.35;;;16.20;99.90;;;;;;5014841;28;20060;-82
2021/10/15 12:53:02;;;;;;;6.70;1.88;;;15.90;98.60;;;;;;5031069;28;20045;-81
2021/10/15 12:56:02;;;;;;;10.90;2.75;;;16.00;99.10;;;;;;5044836;28;20059;-82
2021/10/15 12:59:24;;;;;;;19.42;2.63;;;15.90;99.30;;;;;;5031221;28;20057;-82
2021/10/15 13:02:41;;;;;;;12.38;2.47;;;15.70;99.80;;;;;;4963089;28;20065;-81
2021/10/15 13:05:43;;;;;;;8.15;2.08;;;15.60;99.90;;;;;;4961110;28;20050;-82
2021/10/15 13:08:18;;;;;;;9.68;2.13;;;15.50;99.90;;;;;;4951975;28;20046;-80
2021/10/15 13:10:48;;;;;;;8.95;1.90;;;15.40;99.90;;;;;;4983266;28;20061;-80
2021/10/15 13:13:18;;;;;;;9.02;2.03;;;15.50;99.90;;;;;;4949920;28;20054;-82
2021/10/15 13:15:51;;;;;;;9.70;3.38;;;15.50;99.90;;;;;;4951232;28;20070;-82
2021/10/15 13:19:12;;;;;;;13.13;2.53;;;15.60;99.90;;;;;;5004469;28;20062;-82
2021/10/15 13:22:34;;;;;;;;;;;;;;;;;;;;;
2021/10/15 13:27:27;;;;;;;5.18;2.10;;;15.90;99.10;;;;;;5009075;28;20049;-85
2021/10/15 13:31:24;;;;;;;;;;;;;;;;;;;;;
2021/10/15 13:43:29;;;;;;;11.25;2.13;;;15.00;99.00;;;;;;4790030;29;20063;-83
2021/10/15 13:51:21;;;;;;;;;;;;;;;;;;;;;
2021/10/15 13:54:18;;;;;;;23.05;2.45;;;16.00;98.80;;;;;;4849720;29;20053;-83
2021/10/15 13:57:13;;;;;;;12.00;2.50;;;16.10;99.40;;;;;;4850120;29;20090;-83
2021/10/15 14:02:53;;;;;;;8.80;2.65;;;16.20;99.00;;;;;;4849332;29;20046;-82
2021/10/15 14:06:46;;;;;;;;;;;;;;;;;;;;;
2021/10/15 14:13:54;;;;;;;12.45;2.03;;;16.50;98.10;;;;;;5049663;28;20072;-80